Time;durP1;ratioP1;P1;durP2;ratioP2;P2;SDS_P1;SDS_P2;PMS_P1;PMS_P2;Temp;Humidity;BMP_temperature;BMP_pressure;BME280_temperature;BME280_humidity;BME280_pressure;Samples;Min_cycle;Max_cycle;Signal;HPM_P1;HPM_P2
2022/11/27 00:01:47;;;;;;;10.07;6.20;;;;;;;-2.50;60.75;101675.47;5993753;23;20346;-78
2022/11/27 00:04:14;;;;;;;11.20;5.93;;;;;;;-2.55;61.76;101679.38;6015282;23;20068;-82
2022/11/27 00:06:42;;;;;;;10.57;5.85;;;;;;;-2.24;61.83;101737.72;5995003;23;20019;-81
2022/11/27 00:09:14;;;;;;;10.13;5.68;;;;;;;-2.31;61.86;101733.84;5947659;23;20053;-83
2022/11/27 00:12:09;;;;;;;;;;;;;;;-2.23;62.21;101729.28;6016317;23;20023;-84
2022/11/27 00:14:36;;;;;;;9.95;5.68;;;;;;;-2.87;61.52;101626.88;6039676;23;20233;-84
2022/11/27 00:17:02;;;;;;;10.90;6.07;;;;;;;-2.51;60.37;101685.56;5992186;23;20031;-83
2022/11/27 00:19:30;;;;;;;10.60;5.63;;;;;;;-2.26;61.26;101736.72;6040356;23;20397;-85
2022/11/27 00:21:56;;;;;;;13.68;6.50;;;;;;;-2.29;61.29;101737.41;6022070;23;20026;-83
2022/11/27 00:24:22;;;;;;;11.88;5.82;;;;;;;-2.56;61.66;101708.19;6040811;23;20023;-80
2022/11/27 00:26:48;;;;;;;11.63;6.72;;;;;;;-2.48;61.29;101726.59;5992302;23;20022;-82
2022/11/27 00:29:15;;;;;;;11.50;6.47;;;;;;;-2.90;61.47;101663.22;5993173;23;20023;-81
2022/11/27 00:31:41;;;;;;;10.63;6.15;;;;;;;-2.33;62.04;101737.06;5993397;23;20030;-82
2022/11/27 00:34:07;;;;;;;11.52;6.65;;;;;;;-2.76;61.78;101632.75;6043631;23;20067;-83
2022/11/27 00:36:35;;;;;;;10.35;6.03;;;;;;;-2.19;61.69;101718.56;6000138;23;20365;-81
2022/11/27 00:39:01;;;;;;;11.73;6.18;;;;;;;-1.98;61.77;101731.97;6041097;23;20082;-79
2022/11/27 00:41:29;;;;;;;13.75;7.00;;;;;;;-2.13;61.93;101706.25;5999640;23;20023;-84
2022/11/27 00:43:55;;;;;;;15.65;8.18;;;;;;;-1.92;61.39;101741.75;6026179;23;20019;-85
2022/11/27 00:46:25;;;;;;;19.15;10.18;;;;;;;-2.14;60.88;101723.97;6052373;23;20159;-84
2022/11/27 00:48:51;;;;;;;17.83;9.60;;;;;;;-2.83;61.33;101626.31;5978704;23;20023;-83
2022/11/27 00:51:19;;;;;;;19.48;9.77;;;;;;;-2.05;61.50;101729.78;6018658;23;20019;-84
2022/11/27 00:53:46;;;;;;;18.95;9.77;;;;;;;-2.24;61.42;101694.34;6047633;23;20507;-85
2022/11/27 00:56:28;;;;;;;15.00;8.23;;;;;;;-2.28;60.05;101717.84;5999092;23;20068;-82
2022/11/27 00:58:56;;;;;;;16.75;8.82;;;;;;;-2.73;61.26;101638.09;6047959;23;20026;-80
2022/11/27 01:01:26;;;;;;;16.50;8.70;;;;;;;-2.25;61.55;101722.31;6020746;23;20052;-81
2022/11/27 01:03:52;;;;;;;16.52;8.13;;;;;;;-2.20;61.90;101721.88;6044541;23;20023;-81
2022/11/27 01:06:19;;;;;;;15.75;8.48;;;;;;;-2.32;61.64;101703.13;6022278;23;20471;-79
2022/11/27 01:08:45;;;;;;;12.15;7.30;;;;;;;-2.32;61.67;101692.94;5996517;23;20104;-80
2022/11/27 01:11:17;;;;;;;13.98;7.20;;;;;;;-2.59;60.63;101652.72;6041431;23;20023;-82
2022/11/27 01:13:44;;;;;;;11.43;6.55;;;;;;;-2.34;61.59;101697.03;5974056;23;20110;-83
2022/11/27 01:16:15;;;;;;;12.95;6.45;;;;;;;-2.34;61.59;101704.69;6042002;23;20516;-82
2022/11/27 01:18:43;;;;;;;12.60;7.78;;;;;;;-2.07;61.37;101725.31;5994858;23;20019;-82
2022/11/27 01:21:11;;;;;;;16.15;7.97;;;;;;;-2.04;61.50;101721.34;5995298;23;20079;-83
2022/11/27 01:23:37;;;;;;;22.08;10.00;;;;;;;-2.08;61.54;101715.88;6019643;23;20026;-80
2022/11/27 01:26:06;;;;;;;46.78;19.98;;;;;;;-2.77;60.72;101601.31;6017091;23;20080;-81
2022/11/27 01:28:33;;;;;;;29.35;12.45;;;;;;;-2.39;60.06;101706.00;5977220;23;20019;-82
2022/11/27 01:31:05;;;;;;;30.63;12.90;;;;;;;-2.31;61.77;101731.28;6049119;23;20334;-84
2022/11/27 01:33:31;;;;;;;27.88;14.25;;;;;;;-2.53;61.35;101672.69;6027202;23;20030;-83
2022/11/27 01:36:00;;;;;;;14.98;8.80;;;;;;;-2.16;61.93;101715.31;6053220;23;20428;-80
2022/11/27 01:38:29;;;;;;;10.35;6.72;;;;;;;-2.17;61.67;101734.88;6023321;23;20060;-82
2022/11/27 01:40:59;;;;;;;13.75;7.22;;;;;;;-2.42;61.97;101666.75;6018249;23;20398;-83
2022/11/27 01:43:43;;;;;;;11.50;6.40;;;;;;;-2.07;61.96;101726.22;6045061;23;20042;-79
2022/11/27 01:46:37;;;;;;;14.20;6.28;;;;;;;-2.22;61.57;101715.78;6024077;23;20025;-80
2022/11/27 01:49:09;;;;;;;11.52;6.45;;;;;;;-2.21;61.70;101722.66;6025065;23;20079;-83
2022/11/27 01:51:39;;;;;;;12.35;6.60;;;;;;;-2.55;61.66;101656.41;6047237;23;20027;-80
2022/11/27 01:54:08;;;;;;;13.10;6.10;;;;;;;-2.14;62.41;101723.97;5976721;23;20027;-82
2022/11/27 01:56:34;;;;;;;12.45;6.30;;;;;;;-2.59;62.14;101621.28;6047095;23;20023;-85
2022/11/27 01:59:03;;;;;;;10.88;6.10;;;;;;;-2.17;61.54;101676.19;5971419;23;20110;-79
2022/11/27 02:01:29;;;;;;;12.07;6.30;;;;;;;-2.10;61.99;101689.41;6041381;23;20022;-82
2022/11/27 02:03:59;;;;;;;11.82;6.75;;;;;;;-2.23;61.04;101685.06;5996911;23;20023;-80
2022/11/27 02:06:25;;;;;;;12.98;6.60;;;;;;;-2.38;62.21;101682.25;6020275;23;20023;-86
2022/11/27 02:08:52;;;;;;;14.13;6.50;;;;;;;-2.64;62.21;101615.81;5995210;23;20364;-82
2022/11/27 02:11:39;;;;;;;12.63;6.38;;;;;;;-2.72;61.39;101583.78;6043471;23;20026;-81
2022/11/27 02:14:38;;;;;;;10.70;5.85;;;;;;;-1.93;61.71;101722.13;6017515;23;20457;-80
2022/11/27 02:17:32;;;;;;;12.02;6.22;;;;;;;-1.98;60.24;101718.34;6004369;23;20019;-85
2022/11/27 02:20:20;;;;;;;11.18;6.03;;;;;;;-1.98;61.76;101720.91;6048377;23;20019;-83
2022/11/27 02:23:12;;;;;;;11.15;6.32;;;;;;;-2.85;61.43;101612.56;6052098;23;20036;-82
2022/11/27 02:25:44;;;;;;;;;;;;;;;-2.09;61.70;101724.31;6026697;23;20019;-80
2022/11/27 02:28:32;;;;;;;10.95;5.90;;;;;;;-2.16;61.17;101731.53;6021578;23;19914;-81
2022/11/27 02:31:09;;;;;;;10.55;5.45;;;;;;;-2.12;61.75;101714.78;6043081;23;20053;-82
2022/11/27 02:33:39;;;;;;;12.15;6.03;;;;;;;-2.04;61.75;101740.84;6043131;23;20105;-79
2022/11/27 02:36:10;;;;;;;9.65;5.88;;;;;;;-2.26;62.09;101693.34;5993900;23;20116;-83
2022/11/27 02:39:19;;;;;;;11.32;5.78;;;;;;;-2.05;60.83;101739.06;5969575;23;20105;-82
2022/11/27 02:42:00;;;;;;;14.38;6.53;;;;;;;-2.12;61.65;101748.84;5986232;23;20103;-78
2022/11/27 02:44:32;;;;;;;11.45;6.70;;;;;;;-2.33;62.24;101711.56;5986640;23;20042;-83
2022/11/27 02:47:00;;;;;;;10.68;5.65;;;;;;;-2.18;62.28;101724.53;6006822;23;20045;-80
2022/11/27 02:49:26;;;;;;;12.43;6.47;;;;;;;-1.93;62.15;101741.63;6024399;23;20030;-82
2022/11/27 02:51:58;;;;;;;11.15;5.80;;;;;;;-2.15;61.77;101707.81;5972293;23;20079;-80
2022/11/27 02:54:28;;;;;;;12.45;5.90;;;;;;;-2.38;62.48;101672.94;6030853;23;20026;-80
2022/11/27 02:56:56;;;;;;;10.57;6.20;;;;;;;-2.27;62.00;101691.56;6007471;23;20026;-80
2022/11/27 02:59:26;;;;;;;11.95;6.00;;;;;;;-2.09;62.05;101706.44;5999853;23;20075;-85
2022/11/27 03:02:08;;;;;;;9.50;5.95;;;;;;;-2.18;62.16;101689.72;5994597;23;20015;-82
2022/11/27 03:04:42;;;;;;;9.68;5.82;;;;;;;-1.91;62.25;101712.91;6019451;23;20474;-83
2022/11/27 03:07:14;;;;;;;10.23;5.72;;;;;;;-1.90;62.02;101752.06;6016526;23;20041;-83
2022/11/27 03:09:46;;;;;;;8.75;5.28;;;;;;;-2.06;61.48;101766.28;6042903;23;20052;-83
2022/11/27 03:12:13;;;;;;;;;;;;;;;-2.04;62.34;101763.81;5969751;23;20365;-81
2022/11/27 03:14:41;;;;;;;12.45;5.95;;;;;;;-2.35;62.39;101718.19;5994299;23;19914;-81
2022/11/27 03:17:30;;;;;;;10.35;5.57;;;;;;;-2.21;61.74;101763.47;6019918;23;20472;-84
2022/11/27 03:20:06;;;;;;;10.27;5.57;;;;;;;-2.40;62.64;101730.59;6043534;23;20044;-80
2022/11/27 03:22:33;;;;;;;8.52;5.18;;;;;;;-2.31;61.84;101727.84;5996092;23;20101;-83
2022/11/27 03:24:59;;;;;;;11.20;5.57;;;;;;;-2.39;62.67;101701.75;5997302;23;20396;-81
2022/11/27 03:27:31;;;;;;;8.77;5.53;;;;;;;-2.27;62.03;101723.09;6049525;23;20025;-83
2022/11/27 03:30:00;;;;;;;11.00;5.40;;;;;;;-2.37;62.54;101719.75;6021662;23;20312;-81
2022/11/27 03:32:27;;;;;;;11.45;5.40;;;;;;;-2.25;62.69;101737.63;5998778;23;20055;-81
2022/11/27 03:34:54;;;;;;;8.73;4.75;;;;;;;-2.23;62.39;101752.25;5999039;23;20027;-81
2022/11/27 03:37:21;;;;;;;11.13;5.72;;;;;;;-2.50;62.57;101710.28;6022038;23;20019;-82
2022/11/27 03:39:48;;;;;;;9.65;4.60;;;;;;;-2.24;61.23;101758.13;5996613;23;20025;-80
2022/11/27 03:42:39;;;;;;;10.18;5.03;;;;;;;-2.35;62.56;101754.78;5974990;23;20381;-83
2022/11/27 03:45:16;;;;;;;8.32;4.45;;;;;;;-2.23;62.52;101749.72;6017773;23;20421;-83
2022/11/27 03:48:19;;;;;;;8.00;4.28;;;;;;;-2.28;62.25;101756.13;6017447;23;20019;-80
2022/11/27 03:50:48;;;;;;;8.75;4.72;;;;;;;-2.15;61.72;101752.81;6018494;23;20015;-83
2022/11/27 03:53:38;;;;;;;9.50;5.00;;;;;;;-2.31;62.74;101705.78;6041063;23;20075;-84
2022/11/27 03:56:17;;;;;;;10.55;5.55;;;;;;;-1.94;62.54;101747.50;6016576;23;20106;-86
2022/11/27 03:58:53;;;;;;;9.20;4.60;;;;;;;-2.01;62.36;101739.44;6041853;23;20022;-83
2022/11/27 04:01:23;;;;;;;10.27;4.85;;;;;;;-2.27;61.19;101681.38;6019472;23;20139;-82
2022/11/27 04:03:49;;;;;;;9.10;4.70;;;;;;;-2.02;62.50;101724.00;6000869;23;20347;-83
2022/11/27 04:06:15;;;;;;;9.18;4.43;;;;;;;-2.21;62.27;101669.06;5994989;23;20026;-84
2022/11/27 04:08:43;;;;;;;8.25;4.60;;;;;;;-2.06;62.37;101682.06;6016839;23;20071;-86
2022/11/27 04:11:08;;;;;;;7.53;4.38;;;;;;;-2.29;61.73;101640.47;6016164;23;20023;-84
2022/11/27 04:13:35;;;;;;;9.68;4.78;;;;;;;-2.01;61.40;101725.78;5993539;23;20031;-80
2022/11/27 04:16:03;;;;;;;8.15;4.40;;;;;;;-2.42;62.03;101646.34;6042344;23;20024;-82
2022/11/27 04:18:29;;;;;;;7.68;4.57;;;;;;;-2.09;61.83;101689.50;6043672;23;20026;-80
2022/11/27 04:20:55;;;;;;;8.82;4.78;;;;;;;-1.62;62.08;101748.97;5998321;23;20209;-81
2022/11/27 04:23:22;;;;;;;8.88;5.30;;;;;;;-1.96;61.93;101693.81;6009680;23;20015;-80
2022/11/27 04:25:49;;;;;;;12.45;5.57;;;;;;;-1.80;61.48;101717.91;6035860;23;20030;-80
2022/11/27 04:28:16;;;;;;;17.88;8.18;;;;;;;-1.80;62.41;101723.00;6021064;23;20022;-82
2022/11/27 04:30:43;;;;;;;26.15;11.07;;;;;;;-1.66;61.24;101752.97;6024160;23;20027;-82
2022/11/27 04:33:09;;;;;;;38.25;14.57;;;;;;;-2.16;62.02;101679.59;6043236;23;20056;-83
2022/11/27 04:35:35;;;;;;;41.65;15.85;;;;;;;-1.68;61.89;101751.97;5994319;23;20022;-81
2022/11/27 04:38:02;;;;;;;32.80;14.25;;;;;;;-1.93;62.03;101717.03;6018283;23;20096;-82
2022/11/27 04:40:28;;;;;;;20.48;9.23;;;;;;;-2.02;61.24;101708.69;6016846;23;20023;-80
2022/11/27 04:42:54;;;;;;;17.63;8.43;;;;;;;-1.84;61.70;101725.31;6041990;23;20015;-82
2022/11/27 04:45:20;;;;;;;19.45;9.45;;;;;;;-1.71;61.40;101733.88;6041873;23;20448;-84
2022/11/27 04:47:46;;;;;;;14.07;7.82;;;;;;;-1.67;61.74;101738.44;6016483;23;20049;-85
2022/11/27 04:50:12;;;;;;;9.27;6.15;;;;;;;-1.92;60.93;101725.56;5970110;23;20354;-78
2022/11/27 04:52:38;;;;;;;10.05;5.90;;;;;;;-1.91;60.69;101753.75;6041346;23;20044;-81
2022/11/27 04:55:06;;;;;;;9.35;5.13;;;;;;;-1.88;61.98;101758.19;5995210;23;20034;-82
2022/11/27 04:57:33;;;;;;;9.55;5.35;;;;;;;-2.01;60.80;101725.78;6046450;23;20114;-82
2022/11/27 04:59:59;;;;;;;12.18;6.53;;;;;;;-2.01;60.28;101784.47;6017510;23;20058;-85
2022/11/27 05:02:25;;;;;;;10.68;5.90;;;;;;;-2.31;60.69;101746.59;6042972;23;20015;-85
2022/11/27 05:04:51;;;;;;;11.88;5.50;;;;;;;-2.98;61.37;101633.69;6042600;23;20062;-83
2022/11/27 05:07:20;;;;;;;12.00;6.05;;;;;;;-2.15;61.79;101774.13;5994517;23;20019;-81
2022/11/27 05:09:46;;;;;;;11.52;6.22;;;;;;;-2.64;62.31;101684.63;6020936;23;20106;-85
2022/11/27 05:12:12;;;;;;;14.75;6.55;;;;;;;-2.41;62.65;101708.41;6042816;23;20019;-84
2022/11/27 05:14:38;;;;;;;8.45;5.28;;;;;;;-2.57;62.62;101656.28;6019075;23;20022;-82
2022/11/27 05:17:04;;;;;;;11.25;6.13;;;;;;;-2.32;61.63;101709.09;6004576;23;20026;-81
2022/11/27 05:19:30;;;;;;;12.70;6.55;;;;;;;-2.12;62.76;101751.41;6025692;23;20019;-80
2022/11/27 05:21:57;;;;;;;10.15;6.57;;;;;;;-2.60;62.13;101639.88;6058738;23;20015;-80
2022/11/27 05:24:25;;;;;;;11.35;5.95;;;;;;;-2.09;61.64;101770.22;6004978;23;20046;-81
2022/11/27 05:26:51;;;;;;;11.93;5.75;;;;;;;-2.16;61.59;101777.47;6017617;23;20023;-84
2022/11/27 05:29:18;;;;;;;14.32;5.78;;;;;;;-2.32;62.48;101759.25;6018343;23;20019;-84
2022/11/27 05:31:45;;;;;;;12.55;6.18;;;;;;;-2.48;63.35;101718.94;6018582;23;20504;-81
2022/11/27 05:34:12;;;;;;;11.30;5.43;;;;;;;-2.20;63.14;101759.22;6042989;23;20052;-82
2022/11/27 05:36:38;;;;;;;9.70;5.32;;;;;;;-1.90;63.81;101780.16;6000148;23;20079;-79
2022/11/27 05:39:06;;;;;;;7.75;4.60;;;;;;;-2.43;61.74;101704.88;6024803;23;20031;-83
2022/11/27 05:41:34;;;;;;;10.80;4.60;;;;;;;-2.35;62.62;101749.69;6023198;23;20051;-82
2022/11/27 05:44:01;;;;;;;11.82;5.80;;;;;;;-2.58;63.10;101719.94;5999661;23;20019;-82
2022/11/27 05:46:27;;;;;;;10.20;5.55;;;;;;;-2.26;62.84;101757.13;5997403;23;20039;-82
2022/11/27 05:48:53;;;;;;;10.88;5.45;;;;;;;-2.03;63.99;101775.81;6055258;23;20034;-83
2022/11/27 05:51:27;;;;;;;9.88;5.03;;;;;;;-2.16;64.29;101763.78;6032092;23;20019;-83
2022/11/27 05:53:57;;;;;;;10.43;5.95;;;;;;;-1.82;64.50;101807.13;6036273;23;20388;-82
2022/11/27 05:56:35;;;;;;;9.70;5.40;;;;;;;-1.80;64.09;101782.59;6015580;23;20007;-82
2022/11/27 05:59:09;;;;;;;10.45;5.20;;;;;;;-1.97;63.30;101802.66;6044281;23;20014;-80
2022/11/27 06:01:35;;;;;;;13.98;6.03;;;;;;;-2.31;63.82;101745.69;6033961;23;20092;-80
2022/11/27 06:04:01;;;;;;;11.35;5.80;;;;;;;-2.35;64.38;101715.66;6006859;23;20023;-86
2022/11/27 06:06:27;;;;;;;12.52;5.72;;;;;;;-2.61;64.55;101671.25;6030152;23;20492;-85
2022/11/27 06:08:53;;;;;;;12.60;5.95;;;;;;;-2.24;64.51;101731.75;6034062;23;20121;-83
2022/11/27 06:11:21;;;;;;;11.40;5.68;;;;;;;-1.83;63.47;101793.47;6056385;23;20023;-83
2022/11/27 06:13:48;;;;;;;9.07;5.25;;;;;;;-2.30;64.60;101710.09;6033544;23;20031;-82
2022/11/27 06:16:22;;;;;;;9.40;5.47;;;;;;;-1.80;64.81;101782.59;6061990;23;20019;-80
2022/11/27 06:18:50;;;;;;;10.60;6.05;;;;;;;-2.18;64.30;101725.44;6012397;23;20464;-85
2022/11/27 06:21:17;;;;;;;10.75;5.40;;;;;;;-1.52;64.93;101799.91;6035556;23;20075;-82
2022/11/27 06:23:44;;;;;;;11.70;6.10;;;;;;;-1.49;65.21;101799.25;6061583;23;20011;-79
2022/11/27 06:26:17;;;;;;;11.40;6.40;;;;;;;-1.71;64.90;101731.31;6035222;23;20033;-83
2022/11/27 06:28:43;;;;;;;8.52;4.63;;;;;;;-1.66;63.04;101775.97;6053485;23;20053;-82
2022/11/27 06:31:12;;;;;;;10.70;5.40;;;;;;;-1.60;65.34;101786.59;6030743;23;20107;-83
2022/11/27 06:33:39;;;;;;;9.60;5.43;;;;;;;-1.50;65.26;101800.91;6034222;23;20026;-82
2022/11/27 06:36:05;;;;;;;14.20;5.57;;;;;;;-1.92;65.42;101740.84;6055541;23;20023;-80
2022/11/27 06:38:32;;;;;;;11.02;5.35;;;;;;;-1.76;65.55;101779.47;6055562;23;20067;-81
2022/11/27 06:41:04;;;;;;;9.45;5.35;;;;;;;-1.90;65.35;101739.31;6055137;23;20023;-82
2022/11/27 06:43:30;;;;;;;;;;;;;;;-1.56;65.27;101786.03;6023417;23;20017;-81
2022/11/27 06:45:58;;;;;;;9.77;5.15;;;;;;;-1.97;65.04;101710.78;6048222;23;19934;-83
2022/11/27 06:48:30;;;;;;;11.02;5.38;;;;;;;-1.69;65.35;101743.41;6053282;23;20079;-84
2022/11/27 06:51:01;;;;;;;12.10;5.57;;;;;;;-1.55;65.51;101785.25;6036170;23;20018;-83
2022/11/27 06:53:32;;;;;;;11.02;5.95;;;;;;;-1.87;65.52;101694.47;6011482;23;20024;-81
2022/11/27 06:56:02;;;;;;;11.13;5.70;;;;;;;-1.61;64.53;101753.31;6024388;23;20083;-83
2022/11/27 06:59:13;;;;;;;12.85;5.82;;;;;;;-1.36;64.85;101796.78;6023851;23;20019;-82
2022/11/27 07:01:40;;;;;;;11.63;5.55;;;;;;;-2.05;65.64;101681.28;6003954;23;20110;-84
2022/11/27 07:05:05;;;;;;;9.65;5.20;;;;;;;-2.04;66.21;101641.34;6027419;23;20129;-85
2022/11/27 07:08:32;;;;;;;10.38;6.13;;;;;;;-2.71;65.24;101557.53;5992412;24;20043;-85
2022/11/27 07:11:43;;;;;;;11.65;5.63;;;;;;;-3.07;65.06;101506.53;5956910;23;20027;-84
2022/11/27 07:18:23;;;;;;;10.32;5.38;;;;;;;-2.40;65.19;101576.72;5940421;23;20405;-84
2022/11/27 07:21:08;;;;;;;12.88;6.60;;;;;;;-0.95;65.62;101783.50;6053412;23;20037;-82
2022/11/27 07:24:26;;;;;;;11.48;5.97;;;;;;;-2.09;64.90;101558.47;5976959;23;20042;-80
2022/11/27 07:27:18;;;;;;;11.50;6.05;;;;;;;-0.48;65.91;101825.94;5922304;23;20054;-83
2022/11/27 07:30:47;;;;;;;10.20;6.28;;;;;;;-1.97;63.77;101572.13;6043645;23;20030;-79
2022/11/27 07:39:30;;;;;;;11.63;5.90;;;;;;;-1.29;64.09;101650.84;5853808;24;20082;-85
2022/11/27 07:42:37;;;;;;;9.95;5.07;;;;;;;-1.60;65.19;101586.56;5853306;24;20018;-84
2022/11/27 07:45:29;;;;;;;9.45;4.63;;;;;;;-2.01;64.63;101547.16;5835075;24;20373;-83
2022/11/27 07:48:43;;;;;;;10.13;4.88;;;;;;;-1.25;64.52;101734.59;5856019;24;20022;-84
2022/11/27 07:51:29;;;;;;;9.25;5.05;;;;;;;-0.81;64.26;101793.81;5830124;24;20431;-83
2022/11/27 07:57:12;;;;;;;12.15;6.00;;;;;;;-1.47;65.75;101715.97;5916067;24;20459;-84
2022/11/27 07:59:57;;;;;;;10.45;5.45;;;;;;;-2.44;64.27;101573.06;5999039;23;20051;-83
2022/11/27 08:02:23;;;;;;;;;;;;;;;-0.83;65.42;101800.47;6049812;23;20102;-83
2022/11/27 08:05:28;;;;;;;8.65;4.63;;;;;;;-0.65;66.02;101799.19;6002748;23;19938;-85
2022/11/27 08:07:54;;;;;;;11.40;5.35;;;;;;;-1.19;65.73;101665.16;5979534;23;20102;-81
2022/11/27 08:14:02;;;;;;;10.40;5.40;;;;;;;-1.56;64.47;101599.63;5940070;24;20035;-85
2022/11/27 08:16:43;;;;;;;9.35;4.90;;;;;;;-1.55;65.12;101601.41;5967090;23;20057;-83
2022/11/27 08:20:31;;;;;;;10.70;5.13;;;;;;;-0.99;65.18;101648.59;5991230;23;20545;-84
2022/11/27 08:22:57;;;;;;;9.02;5.03;;;;;;;-0.81;65.55;101656.63;5928850;24;20078;-84
2022/11/27 08:25:34;;;;;;;9.07;5.00;;;;;;;-1.17;65.18;101533.28;5905695;24;20040;-84
2022/11/27 08:28:32;;;;;;;8.50;4.45;;;;;;;0.28;62.79;101781.41;5983952;23;20085;-84
2022/11/27 08:35:17;;;;;;;8.80;4.10;;;;;;;-0.90;64.11;101627.91;5828844;24;20030;-82
2022/11/27 08:41:21;;;;;;;8.80;4.43;;;;;;;-1.61;64.00;101560.13;5942904;24;20051;-82
2022/11/27 08:43:49;;;;;;;7.75;4.28;;;;;;;-1.48;62.99;101583.97;5941992;24;20027;-83
2022/11/27 08:47:05;;;;;;;7.35;4.07;;;;;;;-0.74;64.35;101714.16;5956780;23;20031;-84
2022/11/27 08:52:54;;;;;;;9.13;4.45;;;;;;;-0.71;64.46;101624.00;5941546;24;20024;-80
2022/11/27 08:55:20;;;;;;;7.05;3.70;;;;;;;-1.26;64.48;101550.53;5985990;23;20058;-83
2022/11/27 08:59:00;;;;;;;9.85;4.90;;;;;;;0.27;65.10;101785.66;5986495;23;20021;-82
2022/11/27 09:01:59;;;;;;;6.82;3.88;;;;;;;-0.84;64.09;101589.06;5990938;23;20012;-84
2022/11/27 09:04:32;;;;;;;7.25;4.20;;;;;;;-0.40;64.17;101628.56;5989542;23;20039;-83
2022/11/27 09:07:06;;;;;;;8.63;4.30;;;;;;;-0.01;62.49;101717.28;5967286;23;20366;-84
2022/11/27 09:10:01;;;;;;;8.85;5.03;;;;;;;-0.98;63.14;101583.03;5986714;23;20020;-81
2022/11/27 09:12:59;;;;;;;7.25;4.72;;;;;;;0.24;64.06;101775.19;6018978;23;20043;-81
2022/11/27 09:16:12;;;;;;;;;;;;;;;0.38;64.33;101772.63;5992450;23;20024;-86
2022/11/27 09:20:12;;;;;;;;;;;;;;;;;;;;;
2022/11/27 09:23:40;;;;;;;8.93;4.22;;;;;;;-0.81;63.61;101539.03;5958837;23;20024;-83
2022/11/27 09:31:08;;;;;;;10.73;5.30;;;;;;;0.47;62.83;101790.25;5848857;24;20048;-79
2022/11/27 09:34:22;;;;;;;11.90;6.72;;;;;;;-0.08;63.61;101686.94;5960335;23;20102;-80
2022/11/27 09:42:03;;;;;;;13.07;6.68;;;;;;;0.58;63.76;101773.91;5916541;24;20076;-82
2022/11/27 09:48:38;;;;;;;10.18;4.90;;;;;;;0.03;62.39;101669.72;5915273;24;20029;-80
2022/11/27 09:55:49;;;;;;;9.65;5.18;;;;;;;0.67;62.83;101759.09;5885902;24;20085;-84
2022/11/27 10:03:49;;;;;;;6.30;4.15;;;;;;;-0.41;62.45;101571.41;5755532;24;20028;-83
2022/11/27 10:06:35;;;;;;;8.55;4.50;;;;;;;0.99;62.80;101765.34;5926477;23;20059;-82
2022/11/27 10:09:45;;;;;;;8.70;4.75;;;;;;;0.88;62.03;101768.94;5988680;23;20023;-82
2022/11/27 10:12:30;;;;;;;8.23;5.22;;;;;;;0.69;61.72;101767.78;6086892;23;20356;-79
2022/11/27 10:15:21;;;;;;;10.13;5.28;;;;;;;-1.05;61.41;101517.88;6083011;23;20034;-82
2022/11/27 10:18:18;;;;;;;9.60;5.00;;;;;;;0.13;63.08;101712.16;6079856;23;20022;-81
2022/11/27 10:21:14;;;;;;;8.75;4.72;;;;;;;-0.70;62.60;101584.88;6105321;23;20460;-83
2022/11/27 10:24:36;;;;;;;8.23;5.03;;;;;;;-0.20;63.06;101722.00;6080406;23;20057;-83
2022/11/27 10:27:42;;;;;;;11.80;5.00;;;;;;;0.22;63.40;101745.16;6072535;23;20022;-79
2022/11/27 10:30:31;;;;;;;9.50;5.05;;;;;;;0.07;61.58;101711.78;6057044;23;20022;-84
2022/11/27 10:33:26;;;;;;;11.38;5.88;;;;;;;-0.97;61.99;101543.94;6103416;23;20109;-81
2022/11/27 10:37:22;;;;;;;12.13;5.45;;;;;;;0.45;62.47;101790.19;5985787;23;20515;-80
2022/11/27 10:39:54;;;;;;;10.10;4.90;;;;;;;-0.26;63.31;101683.19;6020597;23;20019;-84
2022/11/27 10:42:51;;;;;;;9.05;4.88;;;;;;;0.25;62.41;101794.91;6000032;23;20090;-82
2022/11/27 10:46:35;;;;;;;10.10;5.38;;;;;;;-1.21;62.13;101605.38;6029613;23;20033;-83
2022/11/27 10:49:28;;;;;;;10.93;5.68;;;;;;;-0.02;62.88;101799.97;6024366;23;20019;-84
2022/11/27 10:52:05;;;;;;;14.18;6.07;;;;;;;-0.57;62.66;101696.53;6020558;23;20031;-84
2022/11/27 10:59:29;;;;;;;10.70;5.88;;;;;;;0.17;62.96;101775.56;6033364;23;20022;-82
2022/11/27 11:01:57;;;;;;;10.55;6.05;;;;;;;-0.31;62.40;101706.78;6088343;23;20018;-79
2022/11/27 11:04:48;;;;;;;10.32;5.35;;;;;;;-0.08;62.95;101737.25;6114586;23;20022;-85
2022/11/27 11:07:30;;;;;;;11.10;5.43;;;;;;;-0.70;63.03;101659.03;6092600;23;20018;-81
2022/11/27 11:10:25;;;;;;;10.45;5.25;;;;;;;-1.12;62.99;101556.56;6068737;23;20030;-82
2022/11/27 11:13:15;;;;;;;8.82;5.20;;;;;;;0.10;62.89;101783.66;6068872;23;20006;-81
2022/11/27 11:16:29;;;;;;;8.25;5.22;;;;;;;-0.76;62.58;101662.03;6048406;23;20022;-83
2022/11/27 11:18:56;;;;;;;8.50;5.30;;;;;;;-0.52;61.90;101736.06;6063741;23;20033;-81
2022/11/27 11:21:44;;;;;;;10.15;5.72;;;;;;;-0.32;63.26;101776.66;6069633;23;20018;-81
2022/11/27 11:24:44;;;;;;;11.52;5.57;;;;;;;-0.24;62.92;101790.00;6068760;23;20022;-78
2022/11/27 11:27:26;;;;;;;8.68;5.22;;;;;;;-0.86;62.36;101721.88;6089358;23;20499;-83
2022/11/27 11:29:59;;;;;;;10.88;5.55;;;;;;;-1.02;62.50;101770.19;6117651;23;20022;-83
2022/11/27 11:32:44;;;;;;;13.07;5.90;;;;;;;-0.70;63.31;101797.09;6116558;23;20014;-81
2022/11/27 11:38:33;;;;;;;9.93;5.07;;;;;;;-2.37;63.59;101543.78;6111215;23;20014;-80
2022/11/27 11:41:02;;;;;;;10.77;5.30;;;;;;;-1.29;63.94;101691.72;6088502;23;20021;-79
2022/11/27 11:43:36;;;;;;;8.82;5.50;;;;;;;-0.60;63.92;101812.28;6092351;23;20023;-82
2022/11/27 11:46:54;;;;;;;11.10;5.93;;;;;;;-1.15;64.09;101715.69;6090051;23;20018;-81
2022/11/27 11:49:43;;;;;;;9.15;5.05;;;;;;;-1.42;64.02;101689.97;6030658;23;20050;-81
2022/11/27 11:52:47;;;;;;;7.97;4.47;;;;;;;-0.63;63.06;101812.97;6066410;23;20133;-79
2022/11/27 11:55:32;;;;;;;8.20;4.60;;;;;;;-1.16;62.50;101764.09;6090876;23;20018;-82
2022/11/27 11:58:40;;;;;;;9.23;4.40;;;;;;;-1.01;62.72;101831.66;6091490;23;20018;-82
2022/11/27 12:01:52;;;;;;;9.18;4.97;;;;;;;-1.04;63.38;101828.88;6032872;23;20018;-82
2022/11/27 12:05:16;;;;;;;9.98;5.07;;;;;;;-1.26;64.67;101767.69;6026395;23;20019;-82
2022/11/27 12:11:46;;;;;;;11.40;5.63;;;;;;;-1.06;65.11;101823.63;6111125;23;20093;-83
2022/11/27 12:14:34;;;;;;;11.00;6.28;;;;;;;-1.02;64.71;101816.19;6041461;23;20464;-83
2022/11/27 12:21:44;;;;;;;10.13;6.65;;;;;;;-2.61;64.94;101559.09;5994021;23;20022;-82
2022/11/27 12:24:31;;;;;;;10.13;5.38;;;;;;;-0.98;64.60;101820.75;6038109;23;20018;-80
2022/11/27 12:28:11;;;;;;;;;;;;;;;;;;;;;
2022/11/27 12:31:15;;;;;;;10.35;5.32;;;;;;;-1.12;63.70;101824.88;6083391;23;20018;-83
2022/11/27 12:33:45;;;;;;;11.85;4.90;;;;;;;-1.24;64.12;101832.56;6108783;23;20066;-79
2022/11/27 12:36:39;;;;;;;11.13;6.28;;;;;;;-1.22;65.17;101826.78;6081558;23;20022;-79
2022/11/27 12:39:43;;;;;;;12.15;5.65;;;;;;;-2.71;65.71;101575.38;6083701;23;20141;-78
2022/11/27 12:42:53;;;;;;;10.02;6.03;;;;;;;-1.40;65.47;101784.56;6085552;23;20018;-83
2022/11/27 12:45:30;;;;;;;11.90;5.80;;;;;;;-2.28;65.10;101659.19;6027143;23;20019;-80
2022/11/27 12:48:21;;;;;;;10.80;5.68;;;;;;;-1.63;65.09;101806.78;6002687;23;20023;-82
2022/11/27 12:50:52;;;;;;;10.20;5.27;;;;;;;-1.34;64.03;101843.78;6024420;23;20468;-79
2022/11/27 12:53:49;;;;;;;10.80;6.13;;;;;;;-2.12;64.46;101727.53;6077164;23;20121;-80
2022/11/27 12:56:50;;;;;;;10.60;6.30;;;;;;;-1.54;65.50;101819.34;6082878;23;20121;-82
2022/11/27 12:59:37;;;;;;;16.83;7.47;;;;;;;-2.42;65.85;101693.88;6057332;23;20045;-82
2022/11/27 13:02:25;;;;;;;12.27;5.65;;;;;;;-1.47;65.77;101830.91;6082414;23;20372;-84
2022/11/27 13:05:24;;;;;;;11.90;5.97;;;;;;;-1.41;65.58;101841.56;6083939;23;20018;-84
2022/11/27 13:08:27;;;;;;;13.13;6.05;;;;;;;-1.79;66.21;101831.97;6085560;23;20029;-85
2022/11/27 13:11:09;;;;;;;11.95;6.03;;;;;;;-2.39;65.73;101722.16;6109644;23;20034;-81
2022/11/27 13:13:51;;;;;;;9.95;5.63;;;;;;;-2.19;66.13;101753.34;6055045;23;20025;-84
2022/11/27 13:16:55;;;;;;;10.98;6.32;;;;;;;-2.98;66.50;101620.97;6086368;23;20468;-81
2022/11/27 13:19:45;;;;;;;12.55;6.90;;;;;;;-1.38;67.11;101840.13;6060969;23;20022;-84
2022/11/27 13:22:34;;;;;;;10.35;6.25;;;;;;;-2.09;66.52;101693.69;6081791;23;20375;-83
2022/11/27 13:25:17;;;;;;;13.40;6.60;;;;;;;-1.74;66.30;101775.38;6106076;23;20022;-84
2022/11/27 13:27:47;;;;;;;19.00;8.25;;;;;;;-1.25;66.81;101831.69;6109305;23;20105;-82
2022/11/27 13:30:29;;;;;;;14.73;7.55;;;;;;;-2.14;66.12;101727.44;6060527;23;20465;-85